Time;durP1;ratioP1;P1;durP2;ratioP2;P2;SDS_P1;SDS_P2;PMS_P1;PMS_P2;Temp;Humidity;BMP_temperature;BMP_pressure;BME280_temperature;BME280_humidity;BME280_pressure;Samples;Min_cycle;Max_cycle;Signal;HPM_P1;HPM_P2
2022/05/03 00:01:42;;;;;;;;;3.25;0.75;;;;;;;;5100243;28;8785;-53
2022/05/03 00:04:32;;;;;;;;;5.75;0.75;;;;;;;;5100727;28;8789;-54
2022/05/03 00:07:23;;;;;;;;;1.00;1.00;;;;;;;;5100919;28;8769;-53
2022/05/03 00:10:20;;;;;;;;;4.00;0.50;;;;;;;;5100791;28;8776;-53
2022/05/03 00:13:09;;;;;;;;;2.25;1.00;;;;;;;;5100438;28;8772;-53
2022/05/03 00:15:55;;;;;;;;;2.25;1.75;;;;;;;;5100809;28;8813;-50
2022/05/03 00:18:41;;;;;;;;;2.00;1.75;;;;;;;;5100615;28;8781;-52
2022/05/03 00:21:25;;;;;;;;;3.75;2.25;;;;;;;;5100751;28;9506;-51
2022/05/03 00:24:10;;;;;;;;;4.75;1.00;;;;;;;;5100479;28;8812;-55
2022/05/03 00:26:54;;;;;;;;;3.00;1.50;;;;;;;;5100600;28;8915;-51
2022/05/03 00:29:39;;;;;;;;;1.50;0.75;;;;;;;;5100233;28;8804;-53
2022/05/03 00:32:26;;;;;;;;;3.75;2.00;;;;;;;;5100784;28;8946;-54
2022/05/03 00:35:10;;;;;;;;;3.75;1.00;;;;;;;;5100219;28;9535;-53
2022/05/03 00:37:54;;;;;;;;;4.00;1.25;;;;;;;;5100165;28;8793;-48
2022/05/03 00:40:44;;;;;;;;;2.50;2.00;;;;;;;;5100067;28;8808;-52
2022/05/03 00:43:48;;;;;;;;;2.00;1.75;;;;;;;;5100144;28;8805;-55
2022/05/03 00:46:38;;;;;;;;;3.25;2.75;;;;;;;;5100045;28;8796;-52
2022/05/03 00:49:25;;;;;;;;;1.75;1.75;;;;;;;;5100229;28;8915;-49
2022/05/03 00:52:20;;;;;;;;;3.75;2.00;;;;;;;;5099869;28;8820;-49
2022/05/03 00:55:14;;;;;;;;;1.75;1.75;;;;;;;;5100072;28;8777;-50
2022/05/03 00:58:05;;;;;;;;;2.50;2.00;;;;;;;;5096763;28;8807;-48
2022/05/03 01:01:12;;;;;;;;;2.00;1.50;;;;;;;;5079252;28;9558;-54
2022/05/03 01:04:19;;;;;;;;;4.50;2.00;;;;;;;;5078551;28;9539;-51
2022/05/03 01:07:06;;;;;;;;;4.25;2.25;;;;;;;;5078483;28;8909;-50
2022/05/03 01:09:57;;;;;;;;;2.00;1.25;;;;;;;;5078993;28;8806;-51
2022/05/03 01:12:44;;;;;;;;;2.75;1.75;;;;;;;;5079313;28;8789;-52
2022/05/03 01:15:32;;;;;;;;;2.00;2.00;;;;;;;;5099737;28;8836;-57
2022/05/03 01:18:35;;;;;;;;;3.25;2.00;;;;;;;;5099370;28;9596;-50
2022/05/03 01:21:30;;;;;;;;;2.25;1.75;;;;;;;;5099376;28;8797;-50
2022/05/03 01:24:33;;;;;;;;;2.00;2.00;;;;;;;;5099434;28;8800;-54
2022/05/03 01:27:36;;;;;;;;;0.75;0.75;;;;;;;;5099283;28;8789;-49
2022/05/03 01:30:20;;;;;;;;;3.25;1.50;;;;;;;;5099224;28;8789;-52
2022/05/03 01:33:08;;;;;;;;;1.00;1.00;;;;;;;;5099030;28;8935;-52
2022/05/03 01:35:56;;;;;;;;;2.25;1.00;;;;;;;;5099060;28;8777;-53
2022/05/03 01:38:59;;;;;;;;;2.50;1.75;;;;;;;;5099202;28;8907;-52
2022/05/03 01:41:54;;;;;;;;;5.75;1.00;;;;;;;;5099181;28;8793;-51
2022/05/03 01:44:39;;;;;;;;;2.50;2.00;;;;;;;;5099091;28;8777;-55
2022/05/03 01:47:35;;;;;;;;;10.25;3.00;;;;;;;;5098933;28;8789;-53
2022/05/03 01:50:38;;;;;;;;;4.50;3.00;;;;;;;;5094666;28;8921;-51
2022/05/03 01:53:48;;;;;;;;;8.00;5.00;;;;;;;;5078412;28;8811;-51
2022/05/03 01:56:41;;;;;;;;;6.00;4.00;;;;;;;;5078490;28;8803;-49
2022/05/03 01:59:48;;;;;;;;;7.25;7.25;;;;;;;;5096896;28;8919;-53
2022/05/03 02:02:53;;;;;;;;;9.50;8.00;;;;;;;;5098647;28;8801;-50
2022/05/03 02:05:37;;;;;;;;;9.00;8.25;;;;;;;;5073779;28;8799;-51
2022/05/03 02:08:23;;;;;;;;;13.25;9.00;;;;;;;;5078434;28;8811;-48
2022/05/03 02:11:07;;;;;;;;;9.00;9.00;;;;;;;;5078122;28;8807;-51
2022/05/03 02:17:26;;;;;;;;;10.25;9.50;;;;;;;;5077821;28;8771;-52
2022/05/03 02:20:31;;;;;;;;;10.50;8.00;;;;;;;;5072987;28;8795;-52
2022/05/03 02:23:24;;;;;;;;;12.00;9.00;;;;;;;;5077586;28;8815;-51
2022/05/03 02:26:31;;;;;;;;;10.25;6.25;;;;;;;;5077605;28;9602;-54
2022/05/03 02:29:18;;;;;;;;;7.25;7.00;;;;;;;;5077709;28;8815;-55
2022/05/03 02:32:08;;;;;;;;;10.75;6.50;;;;;;;;5078027;28;8933;-50
2022/05/03 02:35:02;;;;;;;;;10.50;7.75;;;;;;;;5077692;28;8807;-51
2022/05/03 02:37:53;;;;;;;;;7.25;6.50;;;;;;;;5097425;28;8741;-54
2022/05/03 02:40:43;;;;;;;;;4.25;4.00;;;;;;;;5097885;28;8789;-51
2022/05/03 02:43:30;;;;;;;;;7.50;6.50;;;;;;;;5097711;28;8820;-58
2022/05/03 02:46:43;;;;;;;;;7.00;6.25;;;;;;;;5097646;28;8773;-50
2022/05/03 02:49:39;;;;;;;;;8.50;5.25;;;;;;;;5069238;28;8815;-52
2022/05/03 02:52:32;;;;;;;;;7.00;5.75;;;;;;;;5076926;28;8815;-48
2022/05/03 02:55:23;;;;;;;;;8.50;8.00;;;;;;;;5077269;28;8799;-52
2022/05/03 02:58:15;;;;;;;;;4.25;3.00;;;;;;;;5077314;28;8799;-53
2022/05/03 03:04:15;;;;;;;;;7.00;7.00;;;;;;;;5077265;28;8933;-54
2022/05/03 03:06:59;;;;;;;;;8.75;6.00;;;;;;;;5082815;28;9546;-55
2022/05/03 03:09:47;;;;;;;;;6.50;6.00;;;;;;;;5077034;28;8775;-48
2022/05/03 03:12:34;;;;;;;;;5.50;5.00;;;;;;;;5076905;28;8783;-52
2022/05/03 03:15:19;;;;;;;;;6.50;4.75;;;;;;;;5080271;28;8775;-48
2022/05/03 03:18:07;;;;;;;;;5.75;5.50;;;;;;;;5077100;28;8798;-55
2022/05/03 03:20:56;;;;;;;;;6.75;6.50;;;;;;;;5095262;28;8781;-52
2022/05/03 03:23:41;;;;;;;;;5.75;5.75;;;;;;;;5077025;28;8799;-52
2022/05/03 03:26:29;;;;;;;;;7.00;5.75;;;;;;;;5076533;28;9567;-50
2022/05/03 03:29:14;;;;;;;;;8.25;7.25;;;;;;;;5076909;28;8775;-51
2022/05/03 03:31:59;;;;;;;;;10.75;7.00;;;;;;;;5076853;28;8779;-49
2022/05/03 03:34:50;;;;;;;;;11.50;7.50;;;;;;;;5076100;28;8782;-53
2022/05/03 03:37:34;;;;;;;;;6.25;6.25;;;;;;;;5073646;28;8771;-55
2022/05/03 03:40:19;;;;;;;;;5.25;5.25;;;;;;;;5076885;28;8775;-49
2022/05/03 03:43:04;;;;;;;;;6.75;6.75;;;;;;;;5076707;28;8791;-50
2022/05/03 03:45:48;;;;;;;;;7.50;5.00;;;;;;;;5076591;28;8791;-50
2022/05/03 03:48:33;;;;;;;;;9.50;5.50;;;;;;;;5076658;28;8763;-56
2022/05/03 03:51:18;;;;;;;;;7.25;4.25;;;;;;;;5076635;28;8795;-52
2022/05/03 03:54:02;;;;;;;;;8.75;5.00;;;;;;;;5095422;28;8797;-49
2022/05/03 03:56:47;;;;;;;;;7.25;6.75;;;;;;;;5096676;28;8809;-51
2022/05/03 03:59:32;;;;;;;;;9.50;8.75;;;;;;;;5096823;28;8777;-52
2022/05/03 04:02:16;;;;;;;;;14.25;12.00;;;;;;;;5096565;28;8809;-52
2022/05/03 04:05:01;;;;;;;;;13.75;10.00;;;;;;;;5096803;28;8785;-53
2022/05/03 04:07:45;;;;;;;;;9.25;7.75;;;;;;;;5096513;28;8797;-52
2022/05/03 04:10:30;;;;;;;;;8.00;6.50;;;;;;;;5096734;28;9560;-52
2022/05/03 04:13:14;;;;;;;;;7.75;6.50;;;;;;;;5096732;28;9567;-54
2022/05/03 04:15:59;;;;;;;;;8.50;8.00;;;;;;;;5096379;28;8809;-51
2022/05/03 04:18:44;;;;;;;;;11.50;9.00;;;;;;;;5096452;28;8805;-51
2022/05/03 04:21:28;;;;;;;;;9.00;8.75;;;;;;;;5096805;28;8820;-50
2022/05/03 04:24:13;;;;;;;;;8.75;7.75;;;;;;;;5096592;28;8820;-49
2022/05/03 04:26:57;;;;;;;;;16.25;12.25;;;;;;;;5096544;28;8773;-51
2022/05/03 04:29:42;;;;;;;;;16.75;14.50;;;;;;;;5096441;28;8793;-51
2022/05/03 04:32:30;;;;;;;;;18.50;18.00;;;;;;;;5096610;28;8816;-51
2022/05/03 04:35:14;;;;;;;;;20.75;18.75;;;;;;;;5096402;28;8785;-54
2022/05/03 04:37:59;;;;;;;;;20.25;17.00;;;;;;;;5096374;28;8825;-51
2022/05/03 04:40:43;;;;;;;;;17.25;13.75;;;;;;;;5096327;28;8793;-50
2022/05/03 04:43:27;;;;;;;;;15.50;14.50;;;;;;;;5096447;28;8812;-53
2022/05/03 04:46:11;;;;;;;;;11.50;11.25;;;;;;;;5096550;28;8788;-53
2022/05/03 04:48:56;;;;;;;;;16.75;12.00;;;;;;;;5099769;28;8781;-48
2022/05/03 04:51:40;;;;;;;;;17.75;13.50;;;;;;;;5099971;28;8821;-50
2022/05/03 04:54:25;;;;;;;;;23.50;19.00;;;;;;;;5099744;28;8772;-50
2022/05/03 04:57:09;;;;;;;;;23.50;19.75;;;;;;;;5099931;28;8773;-54
2022/05/03 04:59:53;;;;;;;;;26.50;23.75;;;;;;;;5099771;28;8730;-55
2022/05/03 05:02:38;;;;;;;;;19.75;16.50;;;;;;;;5099729;28;8801;-52
2022/05/03 05:05:22;;;;;;;;;20.25;19.00;;;;;;;;5099639;28;8773;-51
2022/05/03 05:08:07;;;;;;;;;26.50;20.75;;;;;;;;5099718;28;8785;-50
2022/05/03 05:10:51;;;;;;;;;28.25;23.75;;;;;;;;5099298;28;8781;-50
2022/05/03 05:13:37;;;;;;;;;27.75;26.50;;;;;;;;5099655;28;8796;-49
2022/05/03 05:16:21;;;;;;;;;21.25;20.25;;;;;;;;5099494;28;8773;-52
2022/05/03 05:19:05;;;;;;;;;25.25;21.50;;;;;;;;5097130;28;8777;-51
2022/05/03 05:21:49;;;;;;;;;22.25;18.25;;;;;;;;5079181;28;8771;-50
2022/05/03 05:24:34;;;;;;;;;23.50;22.00;;;;;;;;5079120;28;9591;-55
2022/05/03 05:27:18;;;;;;;;;33.75;28.25;;;;;;;;5078968;28;8775;-50
2022/05/03 05:30:03;;;;;;;;;29.00;26.50;;;;;;;;5078688;28;8771;-54
2022/05/03 05:32:47;;;;;;;;;27.75;26.00;;;;;;;;5094902;28;8785;-52
2022/05/03 05:35:32;;;;;;;;;30.00;25.25;;;;;;;;5099164;28;8777;-49
2022/05/03 05:38:17;;;;;;;;;30.25;26.75;;;;;;;;5098916;28;8792;-50
2022/05/03 05:41:11;;;;;;;;;32.75;30.25;;;;;;;;5098811;28;8773;-48
2022/05/03 05:43:55;;;;;;;;;33.00;28.25;;;;;;;;5099100;28;8781;-52
2022/05/03 05:46:39;;;;;;;;;37.75;31.50;;;;;;;;5099014;28;8781;-51
2022/05/03 05:49:24;;;;;;;;;35.50;32.00;;;;;;;;5098716;28;8805;-53
2022/05/03 05:55:11;;;;;;;;;33.25;30.25;;;;;;;;5098643;28;9424;-52
2022/05/03 05:57:55;;;;;;;;;42.00;34.00;;;;;;;;5091220;28;8781;-49
2022/05/03 06:00:40;;;;;;;;;38.25;34.00;;;;;;;;5097609;28;8777;-49
2022/05/03 06:03:27;;;;;;;;;44.00;35.00;;;;;;;;5098350;28;8800;-54
2022/05/03 06:06:11;;;;;;;;;32.50;29.75;;;;;;;;5098446;28;8730;-54
2022/05/03 06:08:56;;;;;;;;;30.50;25.75;;;;;;;;5098560;28;8785;-51
2022/05/03 06:11:40;;;;;;;;;32.25;26.75;;;;;;;;5098390;28;8908;-52
2022/05/03 06:14:25;;;;;;;;;29.00;24.00;;;;;;;;5098236;28;8789;-52
2022/05/03 06:17:09;;;;;;;;;31.75;29.50;;;;;;;;5098433;28;8785;-52
2022/05/03 06:19:53;;;;;;;;;32.00;26.75;;;;;;;;5098464;28;8929;-53
2022/05/03 06:22:41;;;;;;;;;35.00;27.75;;;;;;;;5098258;28;8809;-52
2022/05/03 06:25:25;;;;;;;;;37.25;31.00;;;;;;;;5087350;28;8787;-53
2022/05/03 06:28:10;;;;;;;;;27.75;26.75;;;;;;;;5077616;28;8782;-50
2022/05/03 06:30:54;;;;;;;;;36.50;25.25;;;;;;;;5077843;28;8787;-54
2022/05/03 06:33:38;;;;;;;;;38.50;33.25;;;;;;;;5077787;28;8779;-52
2022/05/03 06:36:23;;;;;;;;;26.00;19.25;;;;;;;;5077368;28;9563;-54
2022/05/03 06:39:07;;;;;;;;;33.00;25.25;;;;;;;;5077627;28;8779;-51
2022/05/03 06:41:51;;;;;;;;;27.25;24.75;;;;;;;;5077541;28;8775;-51
2022/05/03 06:44:37;;;;;;;;;23.25;22.00;;;;;;;;5077146;28;8811;-51
2022/05/03 06:47:22;;;;;;;;;33.00;26.00;;;;;;;;5077278;28;8783;-50
2022/05/03 06:50:08;;;;;;;;;30.50;25.00;;;;;;;;5077217;28;8767;-50
2022/05/03 06:52:52;;;;;;;;;27.00;25.75;;;;;;;;5077328;28;8806;-48
2022/05/03 06:55:36;;;;;;;;;25.75;25.00;;;;;;;;5091266;28;8893;-51
2022/05/03 06:58:21;;;;;;;;;27.00;23.75;;;;;;;;5079984;28;8767;-52
2022/05/03 07:01:09;;;;;;;;;24.25;19.75;;;;;;;;5077244;28;8767;-51
2022/05/03 07:03:53;;;;;;;;;23.25;19.75;;;;;;;;5095944;28;8789;-55
2022/05/03 07:06:37;;;;;;;;;29.50;25.75;;;;;;;;5097344;28;8765;-52
2022/05/03 07:09:22;;;;;;;;;25.25;22.50;;;;;;;;5096804;28;9516;-54
2022/05/03 07:12:07;;;;;;;;;26.50;23.00;;;;;;;;5097286;28;8777;-53
2022/05/03 07:14:51;;;;;;;;;32.75;28.00;;;;;;;;5097472;28;8773;-53
2022/05/03 07:23:41;;;;;;;;;27.00;23.50;;;;;;;;5096987;28;8785;-52
2022/05/03 07:26:26;;;;;;;;;30.75;26.00;;;;;;;;5097021;28;8769;-51
2022/05/03 07:29:11;;;;;;;;;31.50;27.25;;;;;;;;5096999;28;8788;-52
2022/05/03 07:31:55;;;;;;;;;27.75;26.25;;;;;;;;5083989;28;8775;-51
2022/05/03 07:34:39;;;;;;;;;32.25;28.00;;;;;;;;5077809;28;8787;-53
2022/05/03 07:37:24;;;;;;;;;31.00;27.75;;;;;;;;5076327;28;8909;-55
2022/05/03 07:40:08;;;;;;;;;44.25;34.50;;;;;;;;5076296;28;8811;-56
2022/05/03 07:42:53;;;;;;;;;37.75;30.25;;;;;;;;5090699;28;8805;-53
2022/05/03 07:45:37;;;;;;;;;38.50;29.75;;;;;;;;5096211;28;8769;-53
2022/05/03 07:48:22;;;;;;;;;33.25;31.25;;;;;;;;5096650;28;8777;-53
2022/05/03 07:51:06;;;;;;;;;27.00;25.00;;;;;;;;5096450;28;8805;-51
2022/05/03 07:53:51;;;;;;;;;22.25;17.75;;;;;;;;5095663;28;9556;-52
2022/05/03 07:56:35;;;;;;;;;30.50;27.50;;;;;;;;5096691;28;8789;-53
2022/05/03 07:59:23;;;;;;;;;25.75;24.00;;;;;;;;5097049;28;8773;-51
2022/05/03 08:02:07;;;;;;;;;29.25;25.75;;;;;;;;5096513;28;8777;-51
2022/05/03 08:04:52;;;;;;;;;23.25;23.00;;;;;;;;5086281;28;8862;-54
2022/05/03 08:07:37;;;;;;;;;15.00;13.50;;;;;;;;5096553;28;8789;-54
2022/05/03 08:10:21;;;;;;;;;18.50;12.50;;;;;;;;5079517;28;8787;-51
2022/05/03 08:13:05;;;;;;;;;10.00;9.75;;;;;;;;5076477;28;8807;-52
2022/05/03 08:15:49;;;;;;;;;9.75;8.50;;;;;;;;5076532;28;8784;-54
2022/05/03 08:18:34;;;;;;;;;12.00;10.75;;;;;;;;5076107;28;8837;-53
2022/05/03 08:21:18;;;;;;;;;13.75;10.75;;;;;;;;5077646;28;8787;-52
2022/05/03 08:24:03;;;;;;;;;13.00;12.50;;;;;;;;5080268;28;8811;-54
2022/05/03 08:26:47;;;;;;;;;17.00;16.00;;;;;;;;5079647;28;8800;-50
2022/05/03 08:29:31;;;;;;;;;14.50;10.75;;;;;;;;5079957;28;8791;-53
2022/05/03 08:32:16;;;;;;;;;10.00;10.00;;;;;;;;5077174;28;8846;-60
2022/05/03 08:35:01;;;;;;;;;12.00;8.25;;;;;;;;5083486;28;8768;-59
2022/05/03 08:43:51;;;;;;;;;17.25;10.25;;;;;;;;5082464;28;8819;-59
2022/05/03 08:46:36;;;;;;;;;10.25;9.00;;;;;;;;5081020;28;8779;-59
2022/05/03 08:49:21;;;;;;;;;9.00;7.75;;;;;;;;5086807;28;8787;-59
2022/05/03 08:52:06;;;;;;;;;16.25;10.75;;;;;;;;5096382;28;8817;-59
2022/05/03 08:54:50;;;;;;;;;11.25;10.25;;;;;;;;5099992;28;8789;-59
2022/05/03 08:57:35;;;;;;;;;10.50;8.25;;;;;;;;5099804;28;8789;-58
2022/05/03 09:00:23;;;;;;;;;10.75;10.25;;;;;;;;5090659;28;8793;-59
2022/05/03 09:03:12;;;;;;;;;17.75;10.75;;;;;;;;5067686;28;8814;-59
2022/05/03 09:05:59;;;;;;;;;17.25;14.00;;;;;;;;5084972;28;8795;-59
2022/05/03 09:08:52;;;;;;;;;13.75;11.50;;;;;;;;5081989;28;8792;-58
2022/05/03 09:11:45;;;;;;;;;13.00;10.75;;;;;;;;5082220;28;8807;-59
2022/05/03 09:14:43;;;;;;;;;9.25;9.25;;;;;;;;5089981;28;8785;-60
2022/05/03 09:17:44;;;;;;;;;13.00;10.00;;;;;;;;5078948;28;8807;-57
2022/05/03 09:23:47;;;;;;;;;11.00;11.00;;;;;;;;5097935;28;8809;-59
2022/05/03 09:26:54;;;;;;;;;14.75;10.75;;;;;;;;5083493;28;8800;-59
2022/05/03 09:29:57;;;;;;;;;17.75;10.75;;;;;;;;5084108;28;8793;-59
2022/05/03 09:32:44;;;;;;;;;11.00;9.50;;;;;;;;5081094;28;8791;-59
2022/05/03 09:35:41;;;;;;;;;12.75;12.75;;;;;;;;5076084;28;8797;-59
2022/05/03 09:38:26;;;;;;;;;10.00;10.00;;;;;;;;5084952;28;8779;-59
2022/05/03 09:41:12;;;;;;;;;14.75;12.75;;;;;;;;5079600;28;10945;-59
2022/05/03 09:44:01;;;;;;;;;12.00;10.25;;;;;;;;5080355;28;8803;-59
2022/05/03 09:46:52;;;;;;;;;15.25;12.50;;;;;;;;5076707;28;8799;-59
2022/05/03 09:49:40;;;;;;;;;17.00;11.00;;;;;;;;5092149;28;8769;-58
2022/05/03 09:52:36;;;;;;;;;15.25;13.00;;;;;;;;5083396;28;8799;-58
2022/05/03 09:55:48;;;;;;;;;11.75;11.75;;;;;;;;5072630;28;8782;-59
2022/05/03 09:58:35;;;;;;;;;14.75;12.00;;;;;;;;5077998;28;8936;-59
2022/05/03 10:01:19;;;;;;;;;9.25;8.50;;;;;;;;5078223;28;8783;-60
2022/05/03 10:04:07;;;;;;;;;15.75;13.00;;;;;;;;5077752;28;8807;-59
2022/05/03 10:06:52;;;;;;;;;8.25;8.00;;;;;;;;5077373;28;8776;-59
2022/05/03 10:09:38;;;;;;;;;11.50;10.75;;;;;;;;5077676;28;8794;-59
2022/05/03 10:12:25;;;;;;;;;13.00;10.25;;;;;;;;5086945;28;8785;-58
2022/05/03 10:21:41;;;;;;;;;1.25;1.25;;;;;;;;5087222;28;8804;-59
2022/05/03 10:24:54;;;;;;;;;1.50;1.00;;;;;;;;5079625;28;8787;-60
2022/05/03 10:28:06;;;;;;;;;4.25;1.25;;;;;;;;5073992;28;8806;-59
2022/05/03 10:31:11;;;;;;;;;2.25;1.00;;;;;;;;5087146;28;8779;-59
2022/05/03 10:33:57;;;;;;;;;0.50;0.50;;;;;;;;5077497;28;8798;-58
2022/05/03 10:36:42;;;;;;;;;6.00;4.50;;;;;;;;5084681;28;8779;-59
2022/05/03 10:39:27;;;;;;;;;1.25;1.00;;;;;;;;5062014;28;8779;-60
2022/05/03 10:42:18;;;;;;;;;3.00;0.25;;;;;;;;5081582;28;8779;-59
2022/05/03 10:45:12;;;;;;;;;1.50;0.00;;;;;;;;5094634;28;8903;-59
2022/05/03 10:47:59;;;;;;;;;0.00;0.00;;;;;;;;5080577;28;9570;-60
2022/05/03 10:50:44;;;;;;;;;4.00;0.75;;;;;;;;5077513;28;8837;-60
2022/05/03 10:53:30;;;;;;;;;3.25;0.25;;;;;;;;5085630;28;8791;-59
2022/05/03 10:56:29;;;;;;;;;2.75;0.25;;;;;;;;5082294;28;8780;-59
2022/05/03 10:59:15;;;;;;;;;0.25;0.00;;;;;;;;5077337;28;8783;-58
2022/05/03 11:02:04;;;;;;;;;0.50;0.00;;;;;;;;5077025;28;8787;-58
2022/05/03 11:05:07;;;;;;;;;0.50;0.50;;;;;;;;5080452;28;9577;-58
2022/05/03 11:08:12;;;;;;;;;3.00;1.50;;;;;;;;5079781;28;8798;-59
2022/05/03 11:10:57;;;;;;;;;3.00;2.00;;;;;;;;5080327;28;8783;-58
2022/05/03 11:13:43;;;;;;;;;1.25;0.75;;;;;;;;5076514;28;8787;-59
2022/05/03 11:16:34;;;;;;;;;0.00;0.00;;;;;;;;5080240;28;8779;-59
2022/05/03 11:19:21;;;;;;;;;3.25;0.25;;;;;;;;5076747;28;9250;-60
2022/05/03 11:22:29;;;;;;;;;2.50;1.00;;;;;;;;5075513;28;8797;-59
2022/05/03 11:26:02;;;;;;;;;0.50;0.00;;;;;;;;5087149;28;8833;-57
2022/05/03 11:28:52;;;;;;;;;2.25;1.00;;;;;;;;5079811;28;8780;-60
2022/05/03 11:31:38;;;;;;;;;0.50;0.50;;;;;;;;5077866;28;9650;-60
2022/05/03 11:34:22;;;;;;;;;0.50;0.00;;;;;;;;5089912;28;8801;-60
2022/05/03 11:37:10;;;;;;;;;2.00;0.00;;;;;;;;5095122;28;8785;-60
2022/05/03 11:40:15;;;;;;;;;2.50;2.50;;;;;;;;5084857;28;8791;-60
2022/05/03 11:43:12;;;;;;;;;3.00;1.00;;;;;;;;5079680;28;8811;-61
2022/05/03 11:45:56;;;;;;;;;1.25;1.25;;;;;;;;5082623;28;8796;-60
2022/05/03 11:48:41;;;;;;;;;2.00;0.50;;;;;;;;5094481;28;8785;-59
2022/05/03 11:57:45;;;;;;;;;1.25;1.00;;;;;;;;5080666;28;8779;-59
2022/05/03 12:00:35;;;;;;;;;2.25;1.00;;;;;;;;5083963;28;8772;-60
2022/05/03 12:03:19;;;;;;;;;1.75;0.00;;;;;;;;5082757;28;8819;-60
2022/05/03 12:06:13;;;;;;;;;1.50;0.50;;;;;;;;5089170;28;8775;-60
2022/05/03 12:09:08;;;;;;;;;6.00;3.50;;;;;;;;5097811;28;8850;-59
2022/05/03 12:15:06;;;;;;;;;1.50;0.00;;;;;;;;5100254;28;8813;-59
2022/05/03 12:18:01;;;;;;;;;0.25;0.25;;;;;;;;5091847;28;8779;-59
2022/05/03 12:20:58;;;;;;;;;2.50;2.00;;;;;;;;5080026;28;8787;-59
2022/05/03 12:23:45;;;;;;;;;2.00;1.00;;;;;;;;5079958;28;8811;-59
2022/05/03 12:26:41;;;;;;;;;0.75;0.00;;;;;;;;5093097;28;8815;-59
2022/05/03 12:29:57;;;;;;;;;1.00;0.25;;;;;;;;5086304;28;9576;-58
2022/05/03 12:32:46;;;;;;;;;22.50;20.25;;;;;;;;5085870;28;8788;-61
2022/05/03 12:35:38;;;;;;;;;5.50;3.75;;;;;;;;5086746;28;9540;-60
2022/05/03 12:38:25;;;;;;;;;1.25;1.25;;;;;;;;5085569;28;9690;-59
2022/05/03 12:41:17;;;;;;;;;1.50;1.50;;;;;;;;5087659;28;8784;-59
2022/05/03 12:44:09;;;;;;;;;1.50;0.25;;;;;;;;5083702;28;8821;-58
2022/05/03 12:47:04;;;;;;;;;0.00;0.00;;;;;;;;5091058;28;8808;-59
2022/05/03 12:49:48;;;;;;;;;13.00;9.50;;;;;;;;5084584;28;8789;-60
2022/05/03 12:52:44;;;;;;;;;8.75;7.50;;;;;;;;5099596;28;8785;-60
2022/05/03 12:55:30;;;;;;;;;1.50;0.50;;;;;;;;5083799;28;8797;-60
2022/05/03 12:58:22;;;;;;;;;2.75;1.75;;;;;;;;5081688;28;8795;-59
2022/05/03 13:01:21;;;;;;;;;3.50;1.75;;;;;;;;5090708;28;8789;-59
2022/05/03 13:04:05;;;;;;;;;4.75;1.25;;;;;;;;5076591;28;8822;-60
2022/05/03 13:06:52;;;;;;;;;0.00;0.00;;;;;;;;5083788;28;8773;-60
2022/05/03 13:09:36;;;;;;;;;1.50;1.50;;;;;;;;5078385;28;8795;-60
2022/05/03 13:12:22;;;;;;;;;2.50;1.25;;;;;;;;5084034;28;8781;-60
2022/05/03 13:15:11;;;;;;;;;4.25;3.00;;;;;;;;5080852;28;8791;-59
2022/05/03 13:17:55;;;;;;;;;0.50;0.50;;;;;;;;5082482;28;9118;-60
2022/05/03 13:20:41;;;;;;;;;1.25;0.25;;;;;;;;5079717;28;8806;-59
2022/05/03 13:23:26;;;;;;;;;0.25;0.00;;;;;;;;5083571;28;8835;-58
2022/05/03 13:26:13;;;;;;;;;1.75;0.00;;;;;;;;5087173;28;8804;-60
2022/05/03 13:28:57;;;;;;;;;3.00;0.00;;;;;;;;5084743;28;8803;-59
2022/05/03 13:31:48;;;;;;;;;2.50;0.00;;;;;;;;5083109;28;8789;-59
2022/05/03 13:34:34;;;;;;;;;2.25;1.00;;;;;;;;5086198;28;8792;-60
2022/05/03 13:40:31;;;;;;;;;4.75;2.00;;;;;;;;5082832;28;8961;-59
2022/05/03 13:43:32;;;;;;;;;1.50;1.00;;;;;;;;5079686;28;8806;-59
2022/05/03 13:46:28;;;;;;;;;0.00;0.00;;;;;;;;5086091;28;8921;-59
2022/05/03 13:49:14;;;;;;;;;0.50;0.50;;;;;;;;5090941;28;8801;-59
2022/05/03 13:52:01;;;;;;;;;1.00;1.00;;;;;;;;5085107;28;8805;-59
2022/05/03 13:54:46;;;;;;;;;0.00;0.00;;;;;;;;5083410;28;8790;-59
2022/05/03 13:57:34;;;;;;;;;1.25;0.00;;;;;;;;5079932;28;8820;-59
2022/05/03 14:00:21;;;;;;;;;3.00;1.00;;;;;;;;5085253;28;8812;-59
2022/05/03 14:03:16;;;;;;;;;6.25;2.00;;;;;;;;5080847;28;8805;-59
2022/05/03 14:06:03;;;;;;;;;1.75;1.00;;;;;;;;5087831;28;8828;-59
2022/05/03 14:08:48;;;;;;;;;0.00;0.00;;;;;;;;5084353;28;8790;-58
2022/05/03 14:11:41;;;;;;;;;1.50;0.25;;;;;;;;5097283;28;8808;-59
2022/05/03 14:14:26;;;;;;;;;2.00;0.50;;;;;;;;5097738;28;8809;-60
2022/05/03 14:17:11;;;;;;;;;3.25;0.00;;;;;;;;5097235;28;8789;-59
2022/05/03 14:19:57;;;;;;;;;1.00;0.25;;;;;;;;5097399;28;8785;-59
2022/05/03 14:22:45;;;;;;;;;1.75;0.00;;;;;;;;5095068;28;8820;-59
2022/05/03 14:25:31;;;;;;;;;0.50;0.50;;;;;;;;5086121;28;8787;-59
2022/05/03 14:28:19;;;;;;;;;1.75;0.00;;;;;;;;5078759;28;8783;-59
2022/05/03 14:31:28;;;;;;;;;1.00;0.00;;;;;;;;5087434;28;8783;-59
2022/05/03 14:34:14;;;;;;;;;0.25;0.00;;;;;;;;5093841;28;8909;-59
2022/05/03 14:37:02;;;;;;;;;3.00;0.50;;;;;;;;5097809;28;8776;-59
2022/05/03 14:39:46;;;;;;;;;2.00;0.00;;;;;;;;5094236;28;8801;-59
2022/05/03 14:42:31;;;;;;;;;4.25;2.25;;;;;;;;5094298;28;8785;-59
2022/05/03 14:45:17;;;;;;;;;1.00;1.00;;;;;;;;5097647;28;8800;-59
2022/05/03 14:48:03;;;;;;;;;0.00;0.00;;;;;;;;5097723;28;9537;-59
2022/05/03 14:51:02;;;;;;;;;0.00;0.00;;;;;;;;5081719;28;8785;-59
2022/05/03 14:53:48;;;;;;;;;0.00;0.00;;;;;;;;5077330;28;8822;-59
2022/05/03 15:02:54;;;;;;;;;0.00;0.00;;;;;;;;5077429;28;8806;-59
2022/05/03 15:05:39;;;;;;;;;2.25;0.50;;;;;;;;5096729;28;8793;-59
2022/05/03 15:08:28;;;;;;;;;1.75;0.00;;;;;;;;5097339;28;8796;-58
2022/05/03 15:11:16;;;;;;;;;2.75;1.50;;;;;;;;5081689;28;9523;-59
2022/05/03 15:14:05;;;;;;;;;3.00;2.00;;;;;;;;5076877;28;9572;-60
2022/05/03 15:16:49;;;;;;;;;0.75;0.00;;;;;;;;5096328;28;8781;-59
2022/05/03 15:19:34;;;;;;;;;5.50;1.25;;;;;;;;5096636;28;8785;-60
2022/05/03 15:24:35;;;;;;;;;0.00;0.00;;;;;;;;5097229;28;8773;-59
2022/05/03 15:25:26;;;;;;;;;1.25;0.00;;;;;;;;5097537;28;8824;-59
2022/05/03 15:28:21;;;;;;;;;1.75;0.00;;;;;;;;5056852;28;8763;-59
2022/05/03 15:31:09;;;;;;;;;3.50;2.00;;;;;;;;5059938;27;8913;-59
2022/05/03 15:34:01;;;;;;;;;2.00;0.00;;;;;;;;5078189;28;8798;-59
2022/05/03 15:36:47;;;;;;;;;0.00;0.00;;;;;;;;5091012;28;8788;-59
2022/05/03 15:39:54;;;;;;;;;2.00;0.00;;;;;;;;5096773;28;8792;-59
2022/05/03 15:42:39;;;;;;;;;0.50;0.00;;;;;;;;5068120;28;8785;-59
2022/05/03 15:45:23;;;;;;;;;0.75;0.00;;;;;;;;5064892;28;8809;-58
2022/05/03 15:48:18;;;;;;;;;0.75;0.50;;;;;;;;5114389;22;8847;-57
2022/05/03 15:51:09;;;;;;;;;1.00;1.00;;;;;;;;5076122;28;8803;-58
2022/05/03 15:53:54;;;;;;;;;0.00;0.00;;;;;;;;5088725;28;8797;-57
2022/05/03 15:56:39;;;;;;;;;0.00;0.00;;;;;;;;5063603;28;8918;-58
2022/05/03 15:59:23;;;;;;;;;0.25;0.00;;;;;;;;5076134;28;8847;-56
2022/05/03 16:02:09;;;;;;;;;0.00;0.00;;;;;;;;5070089;28;8799;-57
2022/05/03 16:04:55;;;;;;;;;0.00;0.00;;;;;;;;5074588;28;8805;-57
2022/05/03 16:07:44;;;;;;;;;2.00;2.00;;;;;;;;5096441;28;8770;-57
2022/05/03 16:10:29;;;;;;;;;1.25;0.50;;;;;;;;5096231;28;8785;-57
2022/05/03 16:13:13;;;;;;;;;2.25;0.00;;;;;;;;5094662;28;8789;-57
2022/05/03 16:15:58;;;;;;;;;0.00;0.00;;;;;;;;5095772;28;8777;-57
2022/05/03 16:18:43;;;;;;;;;0.00;0.00;;;;;;;;5095633;28;8785;-57
2022/05/03 16:21:48;;;;;;;;;0.00;0.00;;;;;;;;5095053;28;8797;-57
2022/05/03 16:24:34;;;;;;;;;2.00;0.00;;;;;;;;5079156;28;8785;-57
2022/05/03 16:27:22;;;;;;;;;0.00;0.00;;;;;;;;5077843;28;8798;-56
2022/05/03 16:30:06;;;;;;;;;0.00;0.00;;;;;;;;5073974;28;8783;-59
2022/05/03 16:32:52;;;;;;;;;1.75;0.00;;;;;;;;5075567;28;8783;-58
2022/05/03 16:42:08;;;;;;;;;0.00;0.00;;;;;;;;5075394;28;8778;-57
2022/05/03 16:42:19;;;;;;;;;1.75;0.00;;;;;;;;5085341;28;8783;-56
2022/05/03 16:45:07;;;;;;;;;0.75;0.00;;;;;;;;5080060;28;8783;-57
2022/05/03 16:48:04;;;;;;;;;1.25;0.00;;;;;;;;5081601;28;8789;-57
2022/05/03 16:50:50;;;;;;;;;0.00;0.00;;;;;;;;5099379;28;8797;-57
2022/05/03 16:53:37;;;;;;;;;0.50;0.25;;;;;;;;5090403;28;8913;-56
2022/05/03 16:56:24;;;;;;;;;0.00;0.00;;;;;;;;5093352;28;8768;-56
2022/05/03 16:59:10;;;;;;;;;0.00;0.00;;;;;;;;5078488;28;9624;-58
2022/05/03 17:02:07;;;;;;;;;2.50;0.50;;;;;;;;5078979;28;8791;-57
2022/05/03 17:04:53;;;;;;;;;0.00;0.00;;;;;;;;5077514;28;8818;-55
2022/05/03 17:07:43;;;;;;;;;0.50;0.00;;;;;;;;5084310;28;8798;-57
2022/05/03 17:10:33;;;;;;;;;0.00;0.00;;;;;;;;5079062;28;8803;-57
2022/05/03 17:13:18;;;;;;;;;3.75;0.50;;;;;;;;5078759;28;8799;-57
2022/05/03 17:16:04;;;;;;;;;2.00;0.50;;;;;;;;5078490;28;8787;-57
2022/05/03 17:18:50;;;;;;;;;2.00;1.25;;;;;;;;5078719;28;8783;-58
2022/05/03 17:21:35;;;;;;;;;1.25;0.50;;;;;;;;5078898;28;8882;-55
2022/05/03 17:24:36;;;;;;;;;2.25;1.25;;;;;;;;5078582;28;8823;-58
2022/05/03 17:27:26;;;;;;;;;0.25;0.25;;;;;;;;5078481;28;8780;-57
2022/05/03 17:30:16;;;;;;;;;8.75;7.00;;;;;;;;5078612;28;8787;-56
2022/05/03 17:33:01;;;;;;;;;0.00;0.00;;;;;;;;5078766;28;8775;-58
2022/05/03 17:35:46;;;;;;;;;1.00;0.00;;;;;;;;5078652;28;8791;-57
2022/05/03 17:38:32;;;;;;;;;7.75;5.25;;;;;;;;5078367;28;8787;-57
2022/05/03 17:41:20;;;;;;;;;9.00;5.50;;;;;;;;5078254;28;8795;-55
2022/05/03 17:44:13;;;;;;;;;2.00;2.00;;;;;;;;5081619;28;8809;-56
2022/05/03 17:46:59;;;;;;;;;3.50;1.50;;;;;;;;5098780;28;8788;-57
2022/05/03 17:49:47;;;;;;;;;4.00;4.00;;;;;;;;5098245;28;8781;-56
2022/05/03 17:55:41;;;;;;;;;2.25;0.50;;;;;;;;5085232;28;8789;-58